Nearby METAR Reports

 

KHOT - Hot Springs, Arkansas, USA
Distance from station: W 8mi, 14km
Updated: 10/28/2020 6:44pm
unable to load KHOT data RC=
unable to load KHOT data RC=
 
KMWT - Mount Ida, Arkansas, USA
Distance from station: W 36mi, 58km
Updated: 10/28/2020 6:44pm
unable to load KMWT data RC=
unable to load KMWT data RC=
 
 
KLIT - Little Rock, Arkansas, USA
Distance from station: ENE 45mi, 73km
Updated: 10/28/2020 6:20pm
Rain, Mist, Overcast
Rain, Mist, Overcast
 Wind from W
Wind: W 6 mph , 9 km/h
Temperature: 52°F , 11°C
Dew Point: 50°F , 10°C
Humidity: 94%
Barometer: 29.73 inHg , 1006.8 hPa
Summary: Rain, Mist
Clouds: Overcast
Visibility: 5 miles , 8 km
Cloud details: Mostly cloudy 500 ft
Overcast 1500 ft
2020/10/28 23:20 KLIT 282320Z 27005KT 5SM RA BR BKN005 OVC015 11/10 A2973 RMK AO2 RAB2257 P0014 T01060100
KLRF - Little Rock Afb, Arkansas, USA
Distance from station: NE 56mi, 89km
Updated: 10/28/2020 6:44pm
unable to load KLRF data RC=
unable to load KLRF data RC=